Time;durP1;ratioP1;P1;durP2;ratioP2;P2;SDS_P1;SDS_P2;PMS_P1;PMS_P2;Temp;Humidity;BMP_temperature;BMP_pressure;BME280_temperature;BME280_humidity;BME280_pressure;Samples;Min_cycle;Max_cycle;Signal;HPM_P1;HPM_P2
2022/05/26 00:00:13;;;;;;;1.90;1.13;;;18.80;62.30;;;19.60;nan;100974.19;5009645;28;20652;-65
2022/05/26 00:02:40;;;;;;;0.93;0.80;;;18.90;62.20;;;19.55;nan;100984.41;5010183;28;20652;-65
2022/05/26 00:05:08;;;;;;;0.80;0.80;;;18.80;62.30;;;19.46;nan;100977.44;5010058;28;20688;-68
2022/05/26 00:07:35;;;;;;;0.80;0.80;;;18.80;62.70;;;19.40;nan;100977.25;4990092;28;20654;-65
2022/05/26 00:10:03;;;;;;;0.60;0.60;;;18.70;63.60;;;19.34;nan;100986.63;4984272;28;21016;-65
2022/05/26 00:12:32;;;;;;;1.23;0.70;;;18.60;63.10;;;19.34;nan;100979.53;5009649;28;20677;-65
2022/05/26 00:14:59;;;;;;;4.00;0.60;;;18.70;63.30;;;19.40;nan;100978.06;5009561;28;21002;-65
2022/05/26 00:17:28;;;;;;;0.70;0.70;;;18.70;63.10;;;19.37;nan;100977.56;5003025;28;20677;-65
2022/05/26 00:19:55;;;;;;;0.93;0.70;;;18.70;63.10;;;19.43;nan;100983.06;4989758;28;20630;-64
2022/05/26 00:22:22;;;;;;;0.63;0.60;;;18.70;62.80;;;19.39;nan;100972.94;4991205;28;20637;-65
2022/05/26 00:24:49;;;;;;;1.33;0.70;;;18.70;62.80;;;19.37;nan;100975.75;4996131;28;20637;-65
2022/05/26 00:27:16;;;;;;;1.33;1.00;;;18.70;62.80;;;19.34;nan;100976.06;5011134;28;20640;-65
2022/05/26 00:29:43;;;;;;;0.70;0.70;;;18.70;63.10;;;19.31;nan;100989.59;5008810;28;20637;-65
2022/05/26 00:32:10;;;;;;;0.60;0.60;;;18.60;63.10;;;19.36;nan;100986.50;4994180;28;21427;-65
2022/05/26 00:34:37;;;;;;;0.77;0.70;;;18.70;62.90;;;19.31;nan;100989.59;5009109;28;20645;-65
2022/05/26 00:37:09;;;;;;;0.77;0.70;;;18.60;62.90;;;19.39;nan;100988.81;5010542;28;20677;-66
2022/05/26 00:39:38;;;;;;;1.47;1.07;;;18.70;62.60;;;19.35;nan;100990.97;5009745;28;20618;-65
2022/05/26 00:42:06;;;;;;;2.50;0.77;;;18.70;62.80;;;19.35;nan;100990.97;4991941;28;20637;-65
2022/05/26 00:44:34;;;;;;;1.43;0.73;;;18.70;63.00;;;19.37;nan;100991.63;4993557;28;20660;-65
2022/05/26 00:47:24;;;;;;;1.77;0.67;;;18.70;62.80;;;19.38;nan;100998.56;4992084;28;20661;-64
2022/05/26 00:50:02;;;;;;;1.70;0.70;;;18.70;62.50;;;19.38;nan;100997.75;5009217;28;20629;-65
2022/05/26 00:52:47;;;;;;;0.50;0.50;;;18.70;62.70;;;19.34;nan;100997.22;4981901;28;20622;-66
2022/05/26 00:55:23;;;;;;;1.40;0.83;;;18.70;62.80;;;19.29;nan;100999.50;5007909;28;20639;-65
2022/05/26 00:58:14;;;;;;;1.37;0.60;;;18.60;63.00;;;19.40;nan;101001.88;4991967;28;20690;-68
2022/05/26 01:00:41;;;;;;;1.33;0.60;;;18.70;62.70;;;19.35;nan;100993.59;4990103;28;20648;-64
2022/05/26 01:03:27;;;;;;;0.70;0.70;;;18.70;63.00;;;19.19;nan;100996.13;4990175;28;21511;-65
2022/05/26 01:06:11;;;;;;;0.80;0.60;;;18.60;63.40;;;19.18;nan;101005.06;4994276;28;20653;-68
2022/05/26 01:08:53;;;;;;;0.80;0.80;;;18.60;63.60;;;19.19;nan;100996.94;5010624;28;20653;-65
2022/05/26 01:11:23;;;;;;;0.77;0.77;;;18.60;63.70;;;19.11;nan;100991.63;5011875;28;21190;-67
2022/05/26 01:13:59;;;;;;;0.70;0.70;;;18.50;64.00;;;19.08;nan;100999.03;4994951;28;20637;-65
2022/05/26 01:16:51;;;;;;;0.50;0.50;;;18.50;64.30;;;19.12;nan;101000.38;5012538;28;20664;-66
2022/05/26 01:19:51;;;;;;;1.20;0.80;;;18.40;64.40;;;19.02;nan;101003.13;5012176;28;20633;-65
2022/05/26 01:22:46;;;;;;;1.03;0.80;;;18.40;64.80;;;18.92;nan;101005.03;5013024;28;20694;-66
2022/05/26 01:25:50;;;;;;;0.60;0.60;;;18.30;65.20;;;18.94;nan;101004.88;5012096;28;20645;-65
2022/05/26 01:28:46;;;;;;;0.87;0.87;;;18.30;65.30;;;18.99;nan;101002.63;5011328;28;20628;-65
2022/05/26 01:31:45;;;;;;;0.60;0.60;;;18.30;65.40;;;18.85;nan;101000.50;5012689;28;20629;-65
2022/05/26 01:34:43;;;;;;;0.93;0.60;;;18.20;65.60;;;18.88;nan;100998.41;5001076;28;20640;-65
2022/05/26 01:37:30;;;;;;;0.70;0.67;;;18.20;65.50;;;18.89;nan;100988.69;4994361;28;20677;-65
2022/05/26 01:40:33;;;;;;;0.60;0.60;;;18.20;65.50;;;18.82;nan;101000.84;5012265;28;21025;-68
2022/05/26 01:43:34;;;;;;;0.70;0.70;;;18.20;65.80;;;18.82;nan;100998.19;4987449;28;20676;-66
2022/05/26 01:46:25;;;;;;;0.60;0.60;;;18.20;66.60;;;18.84;nan;101002.34;5010292;28;20661;-65
2022/05/26 01:49:08;;;;;;;0.73;0.73;;;18.10;66.20;;;18.85;nan;100995.22;4991789;28;20602;-65
2022/05/26 01:51:55;;;;;;;0.60;0.60;;;18.20;66.20;;;18.79;nan;101001.97;4999836;28;20710;-64
2022/05/26 01:54:49;;;;;;;0.80;0.70;;;18.10;66.30;;;18.86;nan;100995.09;4993066;28;21051;-65
2022/05/26 01:57:30;;;;;;;4.47;0.60;;;18.20;66.30;;;18.75;nan;100995.34;5020548;28;21044;-65
2022/05/26 02:00:06;;;;;;;1.47;0.97;;;18.10;66.70;;;18.75;nan;100999.78;5007584;28;21398;-65
2022/05/26 02:02:40;;;;;;;0.70;0.60;;;18.10;66.80;;;18.62;nan;100994.91;5011576;28;20621;-64
2022/05/26 02:05:17;;;;;;;1.20;0.63;;;18.00;67.00;;;18.32;nan;100993.47;4995053;28;20679;-64
2022/05/26 02:08:11;;;;;;;0.57;0.57;;;17.70;68.00;;;18.42;nan;100996.84;4992547;28;20653;-66
2022/05/26 02:10:52;;;;;;;2.53;0.70;;;17.70;68.00;;;18.43;nan;101001.16;4999450;28;20642;-67
2022/05/26 02:13:41;;;;;;;0.70;0.70;;;17.80;68.20;;;18.39;nan;101002.44;5011456;28;20609;-67
2022/05/26 02:16:30;;;;;;;0.60;0.57;;;17.70;68.20;;;18.29;nan;101003.50;4989148;28;20658;-66
2022/05/26 02:19:16;;;;;;;0.57;0.57;;;17.60;68.90;;;18.22;nan;101007.72;4992078;28;20693;-65
2022/05/26 02:22:19;;;;;;;0.60;0.60;;;17.50;69.20;;;18.16;nan;101010.97;4994930;28;20633;-65
2022/05/26 02:24:51;;;;;;;0.70;0.70;;;17.50;69.60;;;18.09;nan;101008.09;4993766;28;20669;-67
2022/05/26 02:27:18;;;;;;;1.30;0.90;;;17.50;69.80;;;18.16;nan;101006.53;5012716;28;20657;-65
2022/05/26 02:29:52;;;;;;;0.93;0.80;;;17.60;69.80;;;18.25;nan;101010.88;4994377;28;20602;-64
2022/05/26 02:32:23;;;;;;;0.80;0.80;;;17.60;69.50;;;18.16;nan;101006.53;4994891;28;21225;-66
2022/05/26 02:34:53;;;;;;;1.03;0.70;;;17.50;69.80;;;18.13;nan;101011.25;4992482;28;21410;-64
2022/05/26 02:37:21;;;;;;;2.50;0.70;;;17.50;69.90;;;18.15;nan;101002.19;4993296;28;20661;-66
2022/05/26 02:39:48;;;;;;;0.70;0.70;;;17.50;70.00;;;18.10;nan;101003.66;4993949;28;20625;-66
2022/05/26 02:42:17;;;;;;;2.30;0.80;;;17.50;70.30;;;18.03;nan;101008.69;4994240;28;20640;-64
2022/05/26 02:44:45;;;;;;;0.80;0.77;;;17.40;70.50;;;18.03;nan;101011.34;4995313;28;21280;-64
2022/05/26 02:47:40;;;;;;;0.60;0.60;;;17.50;70.40;;;17.93;nan;101013.19;4977635;28;21284;-64
2022/05/26 02:50:52;;;;;;;0.80;0.80;;;17.30;70.90;;;17.84;nan;101008.81;4993313;28;21178;-65
2022/05/26 02:53:27;;;;;;;1.13;1.00;;;17.20;71.60;;;17.81;nan;101004.66;5011039;28;20633;-68
2022/05/26 02:56:19;;;;;;;0.87;0.87;;;17.20;71.60;;;17.86;nan;101011.28;5010321;28;21191;-66
2022/05/26 02:59:17;;;;;;;0.50;0.50;;;17.20;71.60;;;17.76;nan;101011.31;4991347;28;20618;-65
2022/05/26 03:02:09;;;;;;;0.63;0.63;;;17.10;71.90;;;17.79;nan;101014.53;4988536;28;20623;-68
2022/05/26 03:04:43;;;;;;;0.70;0.70;;;17.20;72.30;;;17.78;nan;101012.84;5010112;28;20727;-65
2022/05/26 03:07:19;;;;;;;0.90;0.90;;;17.20;72.40;;;17.82;nan;101018.69;4991961;28;20668;-65
2022/05/26 03:09:46;;;;;;;0.70;0.70;;;17.20;72.30;;;17.89;nan;101022.38;4991525;28;20636;-65
2022/05/26 03:12:39;;;;;;;0.70;0.70;;;17.30;72.50;;;17.83;nan;101025.59;4990301;28;20634;-68
2022/05/26 03:15:10;;;;;;;1.23;0.90;;;17.20;72.80;;;17.73;nan;101020.41;5010488;28;20668;-65
2022/05/26 03:17:38;;;;;;;1.43;0.70;;;17.10;73.20;;;17.77;nan;101026.19;5002921;28;20666;-64
2022/05/26 03:20:05;;;;;;;0.60;0.60;;;17.20;73.10;;;17.76;nan;101021.88;5007078;28;20649;-65
2022/05/26 03:22:32;;;;;;;0.83;0.83;;;17.20;73.50;;;17.64;nan;101026.53;5010389;28;21212;-65
2022/05/26 03:24:59;;;;;;;0.70;0.70;;;17.00;73.90;;;17.57;nan;101038.66;5009866;28;20669;-68
2022/05/26 03:27:26;;;;;;;0.70;0.70;;;16.90;74.50;;;17.50;nan;101031.47;5009405;28;20656;-64
2022/05/26 03:29:55;;;;;;;0.90;0.70;;;16.90;74.90;;;17.50;nan;101034.09;5010527;28;20617;-67
2022/05/26 03:32:23;;;;;;;2.10;1.00;;;16.90;75.30;;;17.53;nan;101031.16;5011365;28;20630;-64
2022/05/26 03:43:10;;;;;;;0.57;0.57;;;16.90;76.30;;;17.46;nan;101033.50;5009052;28;21401;-66
2022/05/26 03:45:38;;;;;;;1.37;0.60;;;16.90;76.60;;;17.44;nan;101032.84;4992669;28;20971;-65
2022/05/26 03:48:06;;;;;;;1.17;0.70;;;16.80;76.90;;;17.44;nan;101032.03;4991155;28;20637;-68
2022/05/26 03:50:33;;;;;;;0.73;0.70;;;16.80;77.20;;;17.50;nan;101042.03;5010063;28;20617;-63
2022/05/26 03:53:01;;;;;;;1.57;0.90;;;16.90;77.50;;;17.50;nan;101042.03;4992586;28;20641;-67
2022/05/26 03:55:29;;;;;;;0.90;0.90;;;16.90;77.50;;;17.44;nan;101045.22;5007907;28;20648;-65
2022/05/26 03:57:58;;;;;;;9.10;0.90;;;16.80;78.20;;;17.45;nan;101044.22;4976213;28;20661;-65
2022/05/26 04:00:26;;;;;;;0.60;0.60;;;16.80;78.40;;;17.57;nan;101051.00;4972762;28;20626;-66
2022/05/26 04:02:53;;;;;;;0.80;0.80;;;17.00;78.30;;;17.60;nan;101063.91;5009343;28;20621;-65
2022/05/26 04:05:20;;;;;;;0.77;0.77;;;17.00;78.20;;;17.57;nan;101053.63;5011250;28;21432;-65
2022/05/26 04:07:47;;;;;;;0.77;0.77;;;17.00;78.70;;;17.65;nan;101061.69;5023261;23;20717;-68
2022/05/26 04:10:15;;;;;;;0.70;0.70;;;17.00;78.80;;;17.67;nan;101057.94;5009331;28;20625;-71
2022/05/26 04:12:43;;;;;;;0.70;0.70;;;17.10;78.80;;;17.65;nan;101067.78;5003279;28;20641;-68
2022/05/26 04:15:13;;;;;;;0.70;0.70;;;17.10;79.30;;;17.61;nan;101063.75;5007971;28;21002;-68
2022/05/26 04:17:40;;;;;;;0.60;0.60;;;17.00;79.60;;;17.66;nan;101071.25;4969905;28;20658;-72
2022/05/26 04:20:12;;;;;;;0.93;0.60;;;17.10;80.10;;;17.86;nan;101080.75;4990640;28;20630;-67
2022/05/26 04:22:39;;;;;;;0.70;0.70;;;17.30;80.10;;;18.14;nan;101081.59;4990926;28;20630;-67
2022/05/26 04:25:08;;;;;;;0.60;0.60;;;17.50;79.20;;;18.48;nan;101080.81;4989918;28;21277;-65
2022/05/26 04:27:35;;;;;;;0.60;0.60;;;18.00;78.20;;;18.67;nan;101084.31;4989909;28;20678;-69
2022/05/26 04:30:07;;;;;;;0.67;0.67;;;18.20;77.10;;;18.72;nan;101093.44;4992740;28;20629;-65
2022/05/26 04:32:34;;;;;;;0.80;0.77;;;18.20;76.80;;;18.69;nan;101085.00;4994666;28;20639;-67
2022/05/26 04:35:02;;;;;;;0.90;0.90;;;18.10;77.00;;;18.65;nan;101089.75;4990629;28;20638;-67
2022/05/26 04:37:30;;;;;;;0.60;0.60;;;18.10;77.50;;;18.59;nan;101090.38;4972347;28;21032;-68
2022/05/26 04:39:58;;;;;;;0.70;0.70;;;18.00;77.80;;;18.72;nan;101090.00;4992598;28;20664;-69
2022/05/26 04:42:27;;;;;;;0.60;0.60;;;18.10;78.30;;;18.92;nan;101091.47;4993446;28;20649;-70
2022/05/26 04:44:54;;;;;;;0.80;0.73;;;18.40;77.40;;;19.17;nan;101093.31;4993740;28;20678;-68
2022/05/26 04:47:21;;;;;;;0.73;0.73;;;18.70;76.40;;;19.22;nan;101098.97;4994266;28;20650;-68
2022/05/26 04:49:48;;;;;;;1.53;0.70;;;18.70;76.20;;;19.23;nan;101092.69;4992370;28;21047;-68
2022/05/26 04:52:20;;;;;;;2.30;0.90;;;18.70;76.10;;;19.34;nan;101106.53;4976676;28;20614;-70
2022/05/26 04:54:48;;;;;;;0.80;0.80;;;18.80;76.00;;;19.19;nan;101107.22;4975695;28;21026;-71
2022/05/26 04:57:19;;;;;;;1.30;0.80;;;18.70;77.00;;;19.27;nan;101102.00;4990967;28;20661;-68
2022/05/26 04:59:46;;;;;;;1.27;0.80;;;18.70;76.50;;;19.27;nan;101109.94;4974414;28;20688;-70
2022/05/26 05:02:16;;;;;;;1.80;0.77;;;18.70;77.00;;;19.33;nan;101106.69;4991898;28;20630;-71
2022/05/26 05:04:44;;;;;;;0.90;0.90;;;18.70;77.20;;;19.37;nan;101112.50;4992473;28;20669;-68
2022/05/26 05:07:12;;;;;;;1.80;0.70;;;18.80;77.30;;;19.43;nan;101112.72;4993901;28;20662;-67
2022/05/26 05:09:39;;;;;;;1.00;0.77;;;18.80;77.40;;;19.45;nan;101120.50;4992392;28;20657;-68
2022/05/26 05:12:11;;;;;;;0.70;0.70;;;18.90;77.60;;;19.35;nan;101120.59;4976074;28;20641;-67
2022/05/26 05:14:48;;;;;;;0.70;0.70;;;18.80;77.70;;;19.24;nan;101115.53;4977202;28;20621;-69
2022/05/26 05:17:18;;;;;;;0.60;0.60;;;18.60;78.70;;;19.12;nan;101130.81;4992675;28;20669;-68
2022/05/26 05:19:47;;;;;;;1.47;0.90;;;18.50;79.40;;;19.03;nan;101136.19;4975427;28;20639;-67
2022/05/26 05:22:39;;;;;;;0.60;0.60;;;18.50;79.50;;;18.96;nan;101135.13;4991094;28;20692;-67
2022/05/26 05:25:26;;;;;;;0.70;0.70;;;18.40;80.70;;;19.28;nan;101143.34;4990975;28;20670;-69
2022/05/26 05:28:17;;;;;;;0.60;0.60;;;18.80;79.80;;;19.64;nan;101146.75;4975524;28;20730;-68
2022/05/26 05:30:54;;;;;;;0.67;0.67;;;19.20;79.00;;;20.11;nan;101158.59;4975664;28;20642;-70
2022/05/26 05:33:25;;;;;;;1.37;1.00;;;19.70;77.90;;;20.47;nan;101148.66;4986746;28;20632;-70
2022/05/26 05:35:57;;;;;;;0.93;0.90;;;20.00;76.50;;;20.68;nan;101154.34;4992840;28;21035;-68
2022/05/26 05:38:27;;;;;;;2.30;0.80;;;20.30;75.50;;;21.06;nan;101163.56;4993026;28;20634;-67
2022/05/26 05:40:55;;;;;;;1.97;0.70;;;20.70;75.20;;;21.24;nan;101164.22;4993065;28;20622;-68
2022/05/26 05:43:25;;;;;;;6.33;4.53;;;20.80;74.30;;;21.67;nan;101163.00;4975368;28;20638;-65
2022/05/26 05:45:52;;;;;;;7.27;4.90;;;21.30;73.30;;;22.26;nan;101158.03;4991723;28;20665;-68
2022/05/26 05:48:20;;;;;;;3.20;1.00;;;21.90;72.00;;;22.78;nan;101155.63;4985984;28;20753;-67
2022/05/26 05:50:48;;;;;;;2.93;0.80;;;22.50;70.90;;;23.64;nan;101157.91;4991516;28;20618;-69
2022/05/26 05:53:16;;;;;;;1.90;1.00;;;23.40;69.10;;;24.66;nan;101164.00;4990506;28;20630;-68
2022/05/26 05:55:44;;;;;;;0.70;0.70;;;24.40;66.70;;;25.49;nan;101166.06;4975134;28;20618;-66
2022/05/26 05:58:13;;;;;;;1.87;1.20;;;25.40;64.10;;;25.51;nan;101182.75;4991358;28;20665;-69
2022/05/26 06:00:44;;;;;;;1.00;0.90;;;25.20;62.20;;;25.48;nan;101172.44;4973822;28;20641;-67
2022/05/26 06:03:12;;;;;;;0.90;0.90;;;25.10;62.40;;;25.14;nan;101177.66;4973127;28;20645;-67
2022/05/26 06:05:42;;;;;;;0.80;0.80;;;24.70;62.70;;;24.81;nan;101165.84;4993542;28;20650;-69
2022/05/26 06:08:09;;;;;;;0.80;0.80;;;24.30;62.90;;;24.28;nan;101173.19;4975991;28;20678;-67
2022/05/26 06:10:37;;;;;;;0.93;0.90;;;23.80;64.20;;;23.94;nan;101174.78;4993103;28;20684;-69
2022/05/26 06:13:04;;;;;;;0.70;0.70;;;23.30;65.10;;;23.59;nan;101181.63;4991848;28;21179;-67
2022/05/26 06:15:34;;;;;;;1.70;0.60;;;23.00;66.10;;;23.17;nan;101183.97;4974152;28;20664;-72
2022/05/26 06:18:01;;;;;;;0.80;0.80;;;22.60;67.10;;;22.90;nan;101178.16;4972469;28;21251;-69
2022/05/26 06:20:31;;;;;;;3.83;0.70;;;22.40;67.90;;;22.78;nan;101184.91;4990218;28;20638;-67
2022/05/26 06:22:58;;;;;;;0.83;0.83;;;22.20;68.40;;;22.38;nan;101191.22;4974038;28;20639;-68
2022/05/26 06:25:25;;;;;;;1.43;0.70;;;21.70;69.10;;;22.29;nan;101189.63;4990933;28;20674;-67
2022/05/26 06:30:40;;;;;;;1.77;1.00;;;21.60;70.10;;;22.23;nan;101187.63;4976056;28;20638;-67
2022/05/26 06:38:52;;;;;;;0.40;0.40;;;21.40;71.10;;;21.93;nan;101201.69;4939420;28;20672;-66
2022/05/26 06:44:10;;;;;;;0.77;0.77;;;21.40;71.20;;;22.00;nan;101215.94;4990959;28;20674;-70
2022/05/26 06:46:41;;;;;;;1.10;1.00;;;21.40;71.40;;;21.94;nan;101219.28;4991050;28;20646;-66
2022/05/26 06:49:08;;;;;;;0.90;0.90;;;21.40;72.10;;;21.91;nan;101221.44;4991297;28;20642;-66
2022/05/26 06:51:39;;;;;;;0.70;0.70;;;21.30;71.70;;;21.80;nan;101217.28;4992422;28;20635;-66
2022/05/26 06:54:08;;;;;;;5.27;1.00;;;21.20;72.30;;;21.71;nan;101223.59;4956874;28;20638;-67
2022/05/26 06:56:36;;;;;;;0.73;0.73;;;21.20;72.50;;;21.73;nan;101226.91;4974946;28;20681;-67
2022/05/26 06:59:05;;;;;;;0.97;0.80;;;21.10;72.70;;;21.77;nan;101228.25;4990521;28;20825;-68
2022/05/26 07:01:36;;;;;;;1.07;0.70;;;21.20;72.80;;;21.83;nan;101229.44;4973794;28;20642;-67
2022/05/26 07:04:03;;;;;;;2.40;1.10;;;21.20;72.60;;;21.82;nan;101228.59;4973337;28;20642;-67
2022/05/26 07:06:33;;;;;;;3.43;0.70;;;21.30;72.70;;;21.95;nan;101233.41;4992677;28;20732;-71
2022/05/26 07:09:00;;;;;;;7.77;1.00;;;21.40;72.60;;;21.95;nan;101236.06;4990857;28;21223;-65
2022/05/26 07:11:28;;;;;;;1.57;1.10;;;21.40;72.60;;;21.98;nan;101230.38;4991852;28;20672;-68
2022/05/26 07:13:55;;;;;;;0.90;0.90;;;21.40;72.70;;;22.06;nan;101238.34;4989161;28;20626;-67
2022/05/26 07:16:25;;;;;;;1.10;1.00;;;21.50;72.60;;;22.04;nan;101241.16;4991120;28;20688;-66
2022/05/26 07:18:55;;;;;;;1.23;1.20;;;21.50;72.20;;;21.84;nan;101241.72;4972824;28;20653;-69
2022/05/26 07:21:23;;;;;;;0.70;0.70;;;21.40;72.40;;;21.93;nan;101241.53;4974633;28;20630;-68
2022/05/26 07:23:51;;;;;;;0.87;0.87;;;21.40;72.50;;;22.13;nan;101247.28;4990366;28;20627;-67
2022/05/26 07:26:18;;;;;;;0.90;0.90;;;21.50;72.30;;;22.25;nan;101251.25;4974957;28;20674;-66
2022/05/26 07:28:46;;;;;;;1.00;0.73;;;21.70;71.60;;;22.30;nan;101252.41;4989763;28;21234;-68
2022/05/26 07:31:14;;;;;;;1.00;1.00;;;21.70;71.30;;;22.31;nan;101259.38;4941479;28;20637;-66
2022/05/26 07:33:44;;;;;;;1.23;1.00;;;21.80;71.10;;;22.21;nan;101245.44;4989731;28;20638;-67
2022/05/26 07:41:16;;;;;;;1.10;0.80;;;21.70;70.90;;;22.06;nan;101249.78;4992024;28;21183;-69
2022/05/26 07:41:58;;;;;;;0.90;0.90;;;21.40;71.50;;;22.27;nan;101258.06;4991881;28;20625;-66
2022/05/26 07:44:29;;;;;;;1.23;0.80;;;21.70;71.30;;;22.52;nan;101248.16;4973509;28;20670;-67
2022/05/26 07:46:57;;;;;;;1.10;1.00;;;22.00;70.70;;;22.60;nan;101248.16;4973685;28;20658;-64
2022/05/26 07:49:24;;;;;;;1.37;0.97;;;22.00;70.50;;;22.74;nan;101250.09;4991344;28;20656;-68
2022/05/26 07:51:52;;;;;;;0.87;0.87;;;22.20;70.60;;;22.97;nan;101248.31;4990672;28;20633;-68
2022/05/26 07:54:19;;;;;;;0.70;0.70;;;22.40;70.20;;;23.12;nan;101249.22;4981601;28;20651;-67
2022/05/26 07:56:48;;;;;;;0.77;0.77;;;22.60;69.30;;;23.21;nan;101254.47;4990964;28;20650;-66
2022/05/26 07:59:15;;;;;;;0.93;0.93;;;22.70;69.00;;;23.21;nan;101257.13;4973431;28;20615;-68
2022/05/26 08:01:48;;;;;;;1.23;0.97;;;22.60;68.90;;;22.95;nan;101266.28;4990502;28;21285;-66
2022/05/26 08:04:16;;;;;;;1.73;0.93;;;22.40;69.20;;;22.82;nan;101267.84;4991885;28;20630;-66
2022/05/26 08:06:50;;;;;;;0.70;0.70;;;22.20;70.00;;;22.67;nan;101265.09;4960307;28;20665;-68
2022/05/26 08:09:21;;;;;;;0.83;0.83;;;22.00;70.40;;;22.71;nan;101261.09;4985110;28;20638;-67
2022/05/26 08:11:49;;;;;;;0.63;0.63;;;22.10;70.70;;;22.84;nan;101268.50;4989982;28;20769;-68
2022/05/26 08:14:16;;;;;;;1.03;1.03;;;22.20;70.20;;;22.86;nan;101262.00;4972444;28;21175;-71
2022/05/26 08:16:46;;;;;;;0.90;0.90;;;22.40;69.80;;;22.89;nan;101266.97;4991493;28;20669;-67
2022/05/26 08:19:14;;;;;;;1.10;1.00;;;22.30;69.30;;;22.86;nan;101270.00;4990257;28;20640;-67
2022/05/26 08:21:44;;;;;;;0.73;0.70;;;22.30;69.50;;;22.74;nan;101274.06;4990200;28;21007;-68
2022/05/26 08:24:17;;;;;;;3.90;0.80;;;22.10;69.70;;;22.67;nan;101285.53;4990604;28;20614;-67
2022/05/26 08:26:44;;;;;;;2.20;0.90;;;22.20;69.30;;;22.78;nan;101277.19;4990260;28;20667;-68
2022/05/26 08:29:11;;;;;;;0.87;0.87;;;22.20;69.70;;;22.84;nan;101290.63;4989905;28;20650;-66
2022/05/26 08:31:38;;;;;;;0.87;0.80;;;22.20;69.60;;;22.72;nan;101281.34;4990280;28;20637;-67
2022/05/26 08:34:07;;;;;;;0.70;0.70;;;22.10;70.00;;;22.60;nan;101290.72;4989642;28;21203;-69
2022/05/26 08:36:38;;;;;;;0.90;0.90;;;22.00;70.30;;;22.34;nan;101287.44;4990117;28;21250;-66
2022/05/26 08:39:06;;;;;;;1.10;0.90;;;21.70;71.10;;;22.10;nan;101293.66;4972312;28;20645;-66
2022/05/26 08:41:47;;;;;;;1.50;0.70;;;21.40;71.60;;;21.79;nan;101287.34;4990272;28;20633;-69
2022/05/26 08:44:32;;;;;;;1.00;0.90;;;21.20;72.40;;;21.63;nan;101293.50;4986453;28;21474;-66
2022/05/26 08:47:13;;;;;;;2.40;0.80;;;20.90;73.10;;;21.65;nan;101288.00;4972180;28;20670;-68
2022/05/26 08:49:46;;;;;;;0.70;0.67;;;21.00;73.30;;;21.81;nan;101297.78;4989289;28;20642;-68
2022/05/26 08:52:19;;;;;;;0.80;0.80;;;21.20;72.90;;;22.23;nan;101301.91;4970264;28;20624;-68
2022/05/26 08:54:58;;;;;;;0.80;0.80;;;21.60;72.10;;;22.52;nan;101308.50;4969035;28;20626;-67
2022/05/26 08:57:54;;;;;;;0.97;0.97;;;21.90;70.80;;;22.70;nan;101315.28;4989151;28;21261;-67
2022/05/26 09:00:26;;;;;;;0.70;0.70;;;22.10;70.70;;;22.83;nan;101306.78;4953334;28;20623;-69
2022/05/26 09:02:58;;;;;;;0.70;0.70;;;22.20;70.40;;;23.10;nan;101306.28;4950461;28;20634;-69
2022/05/26 09:05:33;;;;;;;1.07;0.97;;;22.50;70.10;;;23.46;nan;101307.41;4989777;28;20685;-67
2022/05/26 09:14:39;;;;;;;2.83;0.90;;;24.80;66.00;;;25.32;nan;101319.63;4946424;28;20663;-68
2022/05/26 09:17:13;;;;;;;2.57;0.77;;;24.90;65.90;;;26.15;nan;101325.97;4972197;28;20673;-67
2022/05/26 09:19:43;;;;;;;0.70;0.70;;;25.70;64.80;;;26.84;nan;101332.19;4987205;28;20638;-67
2022/05/26 09:22:39;;;;;;;0.70;0.70;;;26.40;63.30;;;27.16;nan;101333.31;4988362;28;20645;-69
2022/05/26 09:25:14;;;;;;;2.77;2.53;;;26.80;61.60;;;27.20;nan;101331.91;4989629;28;20716;-68
2022/05/26 09:27:51;;;;;;;2.10;0.97;;;26.80;61.00;;;26.87;nan;101330.97;4975683;28;20757;-67
2022/05/26 09:30:27;;;;;;;1.73;0.77;;;26.50;60.80;;;26.58;nan;101334.69;4990597;28;20626;-65
2022/05/26 09:32:55;;;;;;;0.80;0.80;;;26.20;61.10;;;26.38;nan;101327.56;4993624;28;21187;-68
2022/05/26 09:35:34;;;;;;;1.03;0.60;;;25.80;61.80;;;26.12;nan;101328.22;4975669;28;20649;-68
2022/05/26 09:38:05;;;;;;;1.03;0.80;;;25.60;61.90;;;25.84;nan;101324.66;4960635;28;21078;-67
2022/05/26 09:40:46;;;;;;;0.80;0.80;;;25.30;62.20;;;26.14;nan;101327.00;4986302;28;20676;-68
2022/05/26 09:43:16;;;;;;;1.90;0.90;;;25.60;62.30;;;26.70;nan;101319.75;4992840;28;20628;-68
2022/05/26 09:45:48;;;;;;;0.97;0.97;;;26.20;61.90;;;27.90;nan;101318.00;4993973;28;21092;-68
2022/05/26 09:48:31;;;;;;;0.70;0.70;;;27.40;60.00;;;29.06;nan;101331.41;4992504;28;21239;-68
2022/05/26 09:51:17;;;;;;;0.80;0.80;;;28.60;57.40;;;29.85;nan;101336.34;4976414;28;20622;-69
2022/05/26 09:53:52;;;;;;;0.90;0.90;;;29.60;55.70;;;29.03;nan;101334.50;4969036;28;20638;-68
2022/05/26 09:56:49;;;;;;;1.50;1.40;;;28.80;55.20;;;27.98;nan;101330.44;4991329;28;20665;-68
2022/05/26 09:59:26;;;;;;;1.30;1.20;;;27.50;56.30;;;26.96;nan;101328.94;4982546;28;20634;-68
2022/05/26 10:02:19;;;;;;;2.07;1.30;;;26.60;57.30;;;26.03;nan;101326.66;4986950;28;20663;-68
2022/05/26 10:05:29;;;;;;;1.10;1.10;;;25.40;58.50;;;25.14;nan;101327.22;4992928;28;21014;-69
2022/05/26 10:08:04;;;;;;;1.30;1.30;;;24.50;60.60;;;24.75;nan;101334.72;5004356;28;20676;-66
2022/05/26 10:10:55;;;;;;;2.60;1.30;;;24.10;62.10;;;24.28;nan;101325.22;4986509;28;20638;-66
2022/05/26 10:13:48;;;;;;;1.60;1.50;;;23.60;62.70;;;23.80;nan;101322.97;4970645;28;20657;-66
2022/05/26 10:16:44;;;;;;;2.30;1.90;;;23.20;63.60;;;23.26;nan;101329.31;4990423;28;20668;-68
2022/05/26 10:19:25;;;;;;;2.83;2.00;;;22.60;65.40;;;23.03;nan;101330.13;4991148;28;21405;-67
2022/05/26 10:22:11;;;;;;;1.70;1.60;;;22.40;66.10;;;22.87;nan;101330.16;4981498;28;20657;-69
2022/05/26 10:24:59;;;;;;;1.43;1.43;;;22.20;66.50;;;22.65;nan;101338.91;4958668;28;20639;-68
2022/05/26 10:27:48;;;;;;;1.87;1.77;;;22.00;66.70;;;22.41;nan;101338.94;4974659;28;21124;-67
2022/05/26 10:31:03;;;;;;;1.67;1.57;;;21.80;67.50;;;22.06;nan;101334.84;4975170;28;20642;-67
2022/05/26 10:34:30;;;;;;;1.80;1.70;;;21.40;68.40;;;22.02;nan;101336.19;4956475;28;20641;-68
2022/05/26 10:37:28;;;;;;;1.30;1.30;;;21.50;68.60;;;22.13;nan;101335.84;4965686;28;21232;-66
2022/05/26 10:40:34;;;;;;;1.10;1.10;;;21.50;68.40;;;22.21;nan;101341.13;4958345;28;21003;-67
2022/05/26 10:43:08;;;;;;;0.80;0.80;;;21.60;67.90;;;22.33;nan;101347.78;4965086;28;20673;-69
2022/05/26 10:45:40;;;;;;;9.40;6.50;;;21.70;67.80;;;22.44;nan;101343.09;4989798;28;21040;-67
2022/05/26 10:48:31;;;;;;;9.20;6.30;;;21.80;67.80;;;22.54;nan;101344.56;4971295;28;20667;-68
2022/05/26 10:51:27;;;;;;;2.77;2.57;;;21.90;67.90;;;22.55;nan;101346.25;4991976;28;20699;-69
2022/05/26 10:54:17;;;;;;;1.40;1.40;;;22.00;68.60;;;22.69;nan;101344.72;4973753;28;21202;-68
2022/05/26 10:57:06;;;;;;;1.30;1.20;;;22.10;69.10;;;22.80;nan;101339.03;4972536;28;20662;-67
2022/05/26 10:59:44;;;;;;;1.30;1.20;;;22.20;69.20;;;22.99;nan;101342.13;4972946;28;21195;-68
2022/05/26 11:02:29;;;;;;;3.03;1.20;;;22.40;68.90;;;23.02;nan;101339.09;4973140;28;20634;-70
2022/05/26 11:05:17;;;;;;;1.97;1.77;;;22.40;68.60;;;22.98;nan;101340.44;4991328;28;20630;-67
2022/05/26 11:07:54;;;;;;;1.50;1.40;;;22.30;68.70;;;22.85;nan;101337.50;4985670;28;21046;-67
2022/05/26 11:10:55;;;;;;;14.03;9.30;;;22.20;68.90;;;22.65;nan;101340.75;4989950;28;20632;-67
2022/05/26 11:13:34;;;;;;;12.53;8.83;;;22.00;69.70;;;22.59;nan;101341.44;4988755;28;20691;-67
2022/05/26 11:19:16;;;;;;;1.90;1.80;;;21.90;70.40;;;22.62;nan;101341.91;4982723;28;20639;-65
2022/05/26 11:21:43;;;;;;;4.20;1.50;;;21.90;70.10;;;22.71;nan;101340.88;4951222;28;20630;-67
2022/05/26 11:24:11;;;;;;;1.57;1.17;;;22.00;70.40;;;22.80;nan;101337.22;4986362;28;20618;-67
2022/05/26 11:26:43;;;;;;;3.40;1.60;;;22.20;69.50;;;22.88;nan;101333.66;4990815;28;21293;-69
2022/05/26 11:29:35;;;;;;;5.73;1.33;;;22.30;69.60;;;22.90;nan;101332.50;4992260;28;20617;-67
2022/05/26 11:38:13;;;;;;;1.40;1.30;;;22.20;68.90;;;22.86;nan;101333.84;4972822;28;20659;-67